Time;durP1;ratioP1;P1;durP2;ratioP2;P2;SDS_P1;SDS_P2;PMS_P1;PMS_P2;Temp;Humidity;BMP_temperature;BMP_pressure;BME280_temperature;BME280_humidity;BME280_pressure;Samples;Min_cycle;Max_cycle;Signal;HPM_P1;HPM_P2
2022/03/15 00:00:24;;;;;;;5.53;3.72;;;2.90;99.90;;;;;;6267406;22;20020;-60
2022/03/15 00:02:50;;;;;;;8.85;3.60;;;2.90;99.90;;;;;;6267680;22;20015;-64
2022/03/15 00:05:20;;;;;;;10.32;3.50;;;2.90;99.90;;;;;;6268378;22;20024;-66
2022/03/15 00:07:47;;;;;;;6.07;3.58;;;2.80;99.90;;;;;;6267832;22;20051;-60
2022/03/15 00:10:14;;;;;;;11.25;4.03;;;2.80;99.90;;;;;;6268555;22;20022;-61
2022/03/15 00:12:40;;;;;;;6.78;3.58;;;3.10;99.90;;;;;;6239484;22;20095;-58
2022/03/15 00:15:10;;;;;;;10.40;4.18;;;2.80;99.90;;;;;;6267819;22;20019;-60
2022/03/15 00:17:40;;;;;;;10.38;3.38;;;2.80;99.90;;;;;;6268312;22;20095;-59
2022/03/15 00:20:08;;;;;;;14.32;4.22;;;2.80;99.90;;;;;;6267457;22;20030;-59
2022/03/15 00:22:37;;;;;;;4.70;2.88;;;2.70;99.90;;;;;;6267640;22;20064;-58
2022/03/15 00:25:09;;;;;;;4.97;3.13;;;2.80;99.90;;;;;;6267792;22;20051;-62
2022/03/15 00:27:35;;;;;;;11.63;4.03;;;2.70;99.90;;;;;;6267858;22;20031;-58
2022/03/15 00:30:03;;;;;;;8.32;4.90;;;2.70;99.90;;;;;;6268083;22;20015;-58
2022/03/15 00:32:29;;;;;;;8.93;3.75;;;2.70;99.90;;;;;;6266747;22;20473;-59
2022/03/15 00:34:55;;;;;;;9.27;3.97;;;2.70;99.90;;;;;;6268057;22;20087;-59
2022/03/15 00:37:20;;;;;;;14.38;3.75;;;2.60;99.90;;;;;;6268405;22;20335;-59
2022/03/15 00:39:46;;;;;;;8.30;4.15;;;2.70;99.90;;;;;;6267349;22;20055;-60
2022/03/15 00:42:12;;;;;;;11.73;3.97;;;2.60;99.90;;;;;;6267643;22;20020;-64
2022/03/15 00:44:39;;;;;;;7.80;4.03;;;2.60;99.90;;;;;;6268609;22;20110;-59
2022/03/15 00:47:06;;;;;;;10.38;3.95;;;2.60;99.90;;;;;;6268458;22;20019;-61
2022/03/15 00:49:32;;;;;;;8.05;3.67;;;2.60;99.90;;;;;;6239865;22;20132;-58
2022/03/15 00:51:57;;;;;;;7.05;4.65;;;2.60;99.90;;;;;;6236249;22;20020;-58
2022/03/15 00:54:23;;;;;;;7.35;4.50;;;2.50;99.90;;;;;;6267227;22;20192;-64
2022/03/15 00:56:50;;;;;;;6.43;4.22;;;3.00;99.90;;;;;;6267306;22;20331;-58
2022/03/15 00:59:16;;;;;;;10.55;5.72;;;2.60;99.90;;;;;;6239376;22;20102;-58
2022/03/15 01:01:42;;;;;;;6.13;4.35;;;2.60;99.90;;;;;;6267244;22;20109;-59
2022/03/15 01:04:08;;;;;;;11.93;5.07;;;2.60;99.90;;;;;;6267724;22;20019;-66
2022/03/15 01:06:37;;;;;;;10.25;4.80;;;2.60;99.90;;;;;;6239559;22;20019;-59
2022/03/15 01:09:04;;;;;;;11.80;6.47;;;2.60;99.90;;;;;;6266610;22;20023;-59
2022/03/15 01:11:30;;;;;;;11.10;5.22;;;2.60;99.90;;;;;;6267256;22;20019;-64
2022/03/15 01:13:55;;;;;;;10.38;6.20;;;2.60;99.90;;;;;;6267778;22;20029;-76
2022/03/15 01:16:21;;;;;;;12.18;5.07;;;2.60;99.90;;;;;;6267940;22;20050;-74
2022/03/15 01:18:47;;;;;;;7.70;4.85;;;2.60;99.90;;;;;;6267866;22;20016;-74
2022/03/15 01:21:13;;;;;;;13.73;5.10;;;2.60;99.90;;;;;;6267337;22;20015;-71
2022/03/15 01:23:40;;;;;;;7.22;4.97;;;2.70;99.90;;;;;;6267120;22;20033;-67
2022/03/15 01:26:06;;;;;;;10.20;4.68;;;2.60;99.90;;;;;;6267227;22;20023;-66
2022/03/15 01:28:31;;;;;;;12.73;5.32;;;2.70;99.90;;;;;;6267056;22;20015;-63
2022/03/15 01:30:57;;;;;;;13.00;5.57;;;2.60;99.90;;;;;;6267225;22;20130;-70
2022/03/15 01:33:23;;;;;;;12.20;5.13;;;2.60;99.90;;;;;;6266801;22;20063;-69
2022/03/15 01:35:48;;;;;;;13.18;6.47;;;2.60;99.90;;;;;;6239995;22;20015;-76
2022/03/15 01:38:14;;;;;;;10.68;5.07;;;2.60;99.90;;;;;;6266810;22;20016;-76
2022/03/15 01:40:40;;;;;;;11.60;5.47;;;2.70;99.90;;;;;;6267078;22;20073;-75
2022/03/15 01:43:06;;;;;;;13.98;5.95;;;2.60;99.90;;;;;;6266403;22;20020;-71
2022/03/15 01:45:34;;;;;;;10.18;4.97;;;2.60;99.90;;;;;;6266183;22;20059;-59
2022/03/15 01:48:00;;;;;;;10.98;5.40;;;2.60;99.90;;;;;;6267592;22;20019;-59
2022/03/15 01:50:26;;;;;;;13.23;6.13;;;2.60;99.90;;;;;;6266180;22;20027;-59
2022/03/15 01:52:52;;;;;;;14.45;5.97;;;2.60;99.90;;;;;;6265966;22;20023;-58
2022/03/15 01:55:18;;;;;;;11.00;5.78;;;2.60;99.90;;;;;;6266489;22;20019;-60
2022/03/15 01:57:44;;;;;;;8.55;4.97;;;2.50;99.90;;;;;;6265764;22;20055;-60
2022/03/15 02:00:10;;;;;;;9.93;4.55;;;2.50;99.90;;;;;;6267550;22;20027;-58
2022/03/15 02:02:36;;;;;;;14.07;4.82;;;2.50;99.90;;;;;;6266783;22;20413;-60
2022/03/15 02:05:02;;;;;;;14.05;6.32;;;2.50;99.90;;;;;;6265910;22;20067;-59
2022/03/15 02:07:27;;;;;;;16.48;6.90;;;2.50;99.90;;;;;;6266370;22;20443;-58
2022/03/15 02:09:54;;;;;;;17.25;5.28;;;2.40;99.90;;;;;;6266657;22;20057;-64
2022/03/15 02:12:19;;;;;;;7.30;4.53;;;2.40;99.90;;;;;;6266672;22;20558;-61
2022/03/15 02:14:45;;;;;;;9.32;5.40;;;2.40;99.90;;;;;;6266153;22;20058;-67
2022/03/15 02:17:11;;;;;;;6.80;4.63;;;2.40;99.90;;;;;;6266635;22;20065;-61
2022/03/15 02:19:37;;;;;;;9.13;5.00;;;2.40;99.90;;;;;;6266417;22;20019;-71
2022/03/15 02:22:03;;;;;;;8.52;4.78;;;2.40;99.90;;;;;;6266430;22;20012;-59
2022/03/15 02:24:29;;;;;;;9.02;4.80;;;2.30;99.90;;;;;;6239713;22;20091;-59
2022/03/15 02:26:55;;;;;;;8.30;4.43;;;2.30;99.90;;;;;;6263409;22;20090;-58
2022/03/15 02:29:22;;;;;;;8.77;4.63;;;2.30;99.90;;;;;;6266467;22;20019;-59
2022/03/15 02:31:48;;;;;;;9.95;4.70;;;2.30;99.90;;;;;;6265359;22;20104;-59
2022/03/15 02:34:16;;;;;;;8.68;4.90;;;2.20;99.90;;;;;;6265978;22;20085;-59
2022/03/15 02:36:43;;;;;;;8.68;4.15;;;2.30;99.90;;;;;;6266304;22;20028;-59
2022/03/15 02:39:09;;;;;;;6.88;4.72;;;2.20;99.90;;;;;;6239763;22;20069;-59
2022/03/15 02:41:35;;;;;;;14.90;4.78;;;2.20;99.90;;;;;;6265951;22;20020;-59
2022/03/15 02:44:00;;;;;;;7.75;4.47;;;2.20;99.90;;;;;;6265987;22;20043;-59
2022/03/15 02:46:34;;;;;;;8.15;4.75;;;2.20;99.90;;;;;;6266192;22;20051;-59
2022/03/15 02:49:00;;;;;;;9.27;5.03;;;2.20;99.90;;;;;;6266385;22;20454;-60
2022/03/15 02:51:26;;;;;;;8.80;4.50;;;2.20;99.90;;;;;;6266071;22;20051;-59
2022/03/15 02:53:53;;;;;;;10.07;5.55;;;2.20;99.90;;;;;;6266412;22;20034;-67
2022/03/15 02:56:21;;;;;;;8.75;4.97;;;2.20;99.90;;;;;;6263596;22;20300;-61
2022/03/15 02:58:46;;;;;;;9.38;4.50;;;2.30;99.90;;;;;;6265629;22;20111;-62
2022/03/15 03:01:12;;;;;;;14.13;5.70;;;2.30;99.90;;;;;;6265635;22;20469;-58
2022/03/15 03:03:38;;;;;;;7.35;4.18;;;2.30;99.90;;;;;;6238530;22;20034;-61
2022/03/15 03:06:04;;;;;;;6.63;4.18;;;2.30;99.90;;;;;;6265430;22;20087;-60
2022/03/15 03:08:30;;;;;;;7.72;4.78;;;2.30;99.90;;;;;;6265953;22;20055;-75
2022/03/15 03:10:57;;;;;;;10.88;4.63;;;2.40;99.90;;;;;;6265658;22;20334;-59
2022/03/15 03:13:26;;;;;;;7.90;5.88;;;2.40;99.90;;;;;;6265794;22;20019;-61
2022/03/15 03:15:59;;;;;;;7.75;5.10;;;2.40;99.90;;;;;;6238313;22;20020;-65
2022/03/15 03:18:31;;;;;;;6.50;3.75;;;2.50;99.90;;;;;;6265866;22;20028;-65
2022/03/15 03:20:57;;;;;;;10.80;5.38;;;2.50;99.90;;;;;;6266736;22;20016;-64
2022/03/15 03:23:23;;;;;;;7.55;4.10;;;2.60;99.90;;;;;;6265749;22;20484;-58
2022/03/15 03:25:48;;;;;;;6.70;4.18;;;2.70;99.90;;;;;;6265466;22;20019;-60
2022/03/15 03:28:14;;;;;;;7.43;5.00;;;2.70;99.90;;;;;;6266205;22;20430;-58
2022/03/15 03:30:48;;;;;;;11.45;5.32;;;2.00;99.90;;;;;;6237689;22;20023;-58
2022/03/15 03:33:15;;;;;;;10.50;4.70;;;2.80;99.90;;;;;;6266079;22;20525;-59
2022/03/15 03:35:41;;;;;;;10.27;4.13;;;2.90;99.90;;;;;;6265748;22;20019;-59
2022/03/15 03:38:07;;;;;;;8.48;5.53;;;3.00;99.90;;;;;;6266231;22;20011;-62
2022/03/15 03:40:33;;;;;;;7.22;4.32;;;3.00;99.90;;;;;;6265896;22;20020;-62
2022/03/15 03:42:59;;;;;;;13.15;5.53;;;3.10;99.90;;;;;;6265696;22;20051;-60
2022/03/15 03:45:24;;;;;;;8.38;4.72;;;3.10;99.90;;;;;;6239415;22;20019;-60
2022/03/15 03:47:51;;;;;;;9.95;5.93;;;3.10;99.90;;;;;;6265707;22;20048;-59
2022/03/15 03:50:18;;;;;;;13.48;6.38;;;3.20;99.90;;;;;;6265976;22;20027;-59
2022/03/15 03:52:44;;;;;;;7.80;5.45;;;3.20;99.90;;;;;;6239085;22;20023;-59
2022/03/15 03:55:09;;;;;;;14.32;6.90;;;3.30;99.90;;;;;;6266420;22;20031;-58
2022/03/15 03:57:35;;;;;;;10.13;6.38;;;3.50;99.90;;;;;;6266717;22;20020;-58
2022/03/15 04:00:01;;;;;;;11.60;5.57;;;3.30;99.90;;;;;;6266317;22;20020;-59
2022/03/15 04:02:27;;;;;;;11.88;5.88;;;3.30;99.90;;;;;;6265275;22;20026;-59
2022/03/15 04:04:54;;;;;;;10.25;5.95;;;3.30;99.90;;;;;;6265421;22;20023;-59
2022/03/15 04:07:20;;;;;;;8.85;6.18;;;3.20;99.90;;;;;;6266210;22;20016;-59
2022/03/15 04:09:46;;;;;;;10.27;6.03;;;3.20;99.90;;;;;;6265970;22;20455;-59
2022/03/15 04:12:12;;;;;;;10.50;6.65;;;3.20;99.90;;;;;;6265558;22;20019;-59
2022/03/15 04:14:38;;;;;;;12.45;7.35;;;3.20;99.90;;;;;;6266479;22;20026;-59
2022/03/15 04:17:04;;;;;;;12.05;6.45;;;3.10;99.90;;;;;;6265763;22;20016;-58
2022/03/15 04:19:30;;;;;;;15.73;7.57;;;3.20;99.90;;;;;;6265363;22;20019;-59
2022/03/15 04:21:56;;;;;;;12.35;7.25;;;3.20;99.90;;;;;;6266471;22;20024;-59
2022/03/15 04:24:22;;;;;;;16.75;9.00;;;3.20;99.90;;;;;;6266014;22;20330;-59
2022/03/15 04:26:48;;;;;;;15.38;8.32;;;3.30;99.90;;;;;;6266302;22;20027;-59
2022/03/15 04:29:13;;;;;;;21.80;10.55;;;3.40;99.90;;;;;;6267275;22;20442;-58
2022/03/15 04:31:40;;;;;;;21.60;9.20;;;3.40;99.90;;;;;;6267950;22;20162;-59
2022/03/15 04:34:05;;;;;;;15.32;8.85;;;3.80;99.90;;;;;;6267538;22;20080;-58
2022/03/15 04:36:31;;;;;;;18.25;9.07;;;3.50;99.90;;;;;;6267639;22;20126;-59
2022/03/15 04:38:58;;;;;;;15.30;9.73;;;3.60;99.90;;;;;;6268049;22;20023;-59
2022/03/15 04:41:24;;;;;;;22.08;10.73;;;3.60;99.90;;;;;;6267358;22;20016;-59
2022/03/15 04:43:50;;;;;;;19.17;10.05;;;3.70;99.90;;;;;;6240108;22;20050;-59
2022/03/15 04:46:16;;;;;;;18.35;10.13;;;3.70;99.90;;;;;;6267681;22;20065;-59
2022/03/15 04:48:42;;;;;;;16.70;8.30;;;3.80;99.90;;;;;;6267437;22;20103;-59
2022/03/15 04:51:08;;;;;;;21.40;10.02;;;3.80;99.90;;;;;;6267160;22;20019;-58
2022/03/15 04:53:35;;;;;;;19.23;10.32;;;3.90;99.90;;;;;;6267434;22;20054;-60
2022/03/15 04:56:01;;;;;;;22.85;10.23;;;3.90;99.90;;;;;;6267472;22;20018;-59
2022/03/15 04:58:27;;;;;;;18.25;10.35;;;4.00;99.90;;;;;;6267205;22;20024;-60
2022/03/15 05:00:52;;;;;;;22.88;10.15;;;4.00;99.90;;;;;;6267427;22;20015;-59
2022/03/15 05:03:18;;;;;;;23.65;11.88;;;4.00;99.90;;;;;;6263011;22;20020;-59
2022/03/15 05:05:44;;;;;;;13.55;9.70;;;4.10;99.90;;;;;;6267184;22;20090;-58
2022/03/15 05:08:11;;;;;;;16.88;10.52;;;4.10;99.90;;;;;;6266541;22;20190;-59
2022/03/15 05:13:21;;;;;;;;;;;4.20;99.90;;;;;;6268330;22;20020;-58
2022/03/15 05:15:48;;;;;;;21.45;9.85;;;4.20;99.90;;;;;;6240241;22;19965;-61
2022/03/15 05:18:14;;;;;;;19.55;9.80;;;4.20;99.90;;;;;;6267083;22;20320;-59
2022/03/15 05:20:39;;;;;;;14.60;9.02;;;4.20;99.90;;;;;;6267123;22;20024;-59
2022/03/15 05:23:05;;;;;;;17.45;9.15;;;4.20;99.90;;;;;;6267273;22;20023;-59
2022/03/15 05:25:31;;;;;;;17.95;9.85;;;4.30;99.90;;;;;;6267881;22;20023;-59
2022/03/15 05:27:57;;;;;;;21.45;11.07;;;4.30;99.90;;;;;;6267339;22;20027;-58
2022/03/15 05:30:23;;;;;;;15.48;9.77;;;4.30;99.90;;;;;;6267324;22;20791;-59
2022/03/15 05:32:48;;;;;;;18.77;10.70;;;5.90;99.90;;;;;;6267707;22;20016;-59
2022/03/15 05:35:15;;;;;;;19.75;11.10;;;4.40;99.90;;;;;;6266594;22;20524;-59
2022/03/15 05:37:40;;;;;;;21.98;10.23;;;4.40;99.90;;;;;;6267067;22;20062;-59
2022/03/15 05:40:07;;;;;;;19.85;11.02;;;4.40;99.90;;;;;;6267216;22;20074;-58
2022/03/15 05:42:32;;;;;;;15.20;9.70;;;4.40;99.90;;;;;;6267455;22;20072;-59
2022/03/15 05:44:58;;;;;;;18.08;10.30;;;4.40;99.90;;;;;;6267280;22;20020;-58
2022/03/15 05:47:23;;;;;;;22.88;9.10;;;4.40;99.90;;;;;;6267666;22;20079;-59
2022/03/15 05:49:49;;;;;;;19.00;9.88;;;4.40;99.90;;;;;;6267256;22;20069;-60
2022/03/15 05:52:15;;;;;;;17.17;10.20;;;4.40;99.90;;;;;;6267979;22;20473;-58
2022/03/15 05:54:41;;;;;;;20.63;10.40;;;4.40;99.90;;;;;;6267315;22;20015;-59
2022/03/15 05:57:07;;;;;;;16.67;9.80;;;4.40;99.90;;;;;;6266901;22;20015;-59
2022/03/15 05:59:33;;;;;;;20.15;10.40;;;4.50;99.90;;;;;;6265742;22;20106;-59
2022/03/15 06:01:58;;;;;;;17.05;10.77;;;4.40;99.90;;;;;;6267247;22;20015;-59
2022/03/15 06:04:25;;;;;;;19.50;9.57;;;4.40;99.90;;;;;;6267373;22;20506;-58
2022/03/15 06:06:51;;;;;;;22.40;10.70;;;4.60;99.90;;;;;;6260599;22;20062;-58
2022/03/15 06:09:17;;;;;;;17.88;10.32;;;4.40;99.90;;;;;;6237755;22;20051;-59
2022/03/15 06:11:43;;;;;;;17.67;11.27;;;4.40;99.90;;;;;;6264883;22;20128;-58
2022/03/15 06:14:09;;;;;;;21.40;9.90;;;4.40;99.90;;;;;;6238138;22;20023;-58
2022/03/15 06:16:34;;;;;;;23.83;11.32;;;4.40;99.90;;;;;;6265038;22;20421;-59
2022/03/15 06:19:01;;;;;;;15.85;10.45;;;4.50;99.90;;;;;;6264566;22;20016;-58
2022/03/15 06:21:26;;;;;;;18.38;9.82;;;4.50;99.90;;;;;;6264764;22;20267;-60
2022/03/15 06:23:52;;;;;;;18.92;11.10;;;4.60;99.90;;;;;;6265524;22;20023;-59
2022/03/15 06:26:20;;;;;;;18.13;10.50;;;4.60;99.90;;;;;;6264733;22;20011;-59
2022/03/15 06:28:45;;;;;;;16.77;10.48;;;4.60;99.90;;;;;;6265611;22;20020;-59
2022/03/15 06:31:11;;;;;;;23.42;12.30;;;4.70;99.90;;;;;;6264448;22;20026;-59
2022/03/15 06:33:37;;;;;;;20.45;12.10;;;4.70;99.90;;;;;;6265649;22;20509;-59
2022/03/15 06:36:07;;;;;;;22.13;11.30;;;5.00;99.90;;;;;;6263870;22;20110;-58
2022/03/15 06:38:33;;;;;;;21.08;11.38;;;4.80;99.90;;;;;;6264992;22;20085;-59
2022/03/15 06:40:59;;;;;;;19.95;10.63;;;4.90;99.90;;;;;;6237715;22;20031;-58
2022/03/15 06:43:25;;;;;;;18.83;12.23;;;4.90;99.90;;;;;;6237305;22;20023;-59
2022/03/15 06:45:50;;;;;;;17.00;11.35;;;5.00;99.90;;;;;;6264443;22;20105;-59
2022/03/15 06:48:16;;;;;;;22.58;10.55;;;5.10;99.90;;;;;;6265329;22;20363;-59
2022/03/15 06:50:42;;;;;;;25.45;12.45;;;5.20;99.90;;;;;;6238690;22;20024;-59
2022/03/15 06:53:07;;;;;;;22.27;12.35;;;5.30;99.90;;;;;;6267448;22;20083;-59
2022/03/15 06:55:34;;;;;;;26.88;13.57;;;5.30;99.90;;;;;;6266693;22;20599;-58
2022/03/15 06:58:00;;;;;;;23.95;13.10;;;5.40;99.90;;;;;;6266618;22;20020;-59
2022/03/15 07:00:26;;;;;;;23.95;11.90;;;5.50;99.90;;;;;;6266636;22;20442;-60
2022/03/15 07:02:51;;;;;;;26.70;13.30;;;5.60;99.90;;;;;;6267101;22;20043;-70
2022/03/15 07:05:17;;;;;;;18.95;10.73;;;5.60;99.90;;;;;;6267364;22;20020;-58
2022/03/15 07:07:43;;;;;;;28.40;13.00;;;5.70;99.90;;;;;;6266765;22;20015;-59
2022/03/15 07:10:10;;;;;;;23.73;12.93;;;6.20;99.90;;;;;;6267286;22;20023;-59
2022/03/15 07:12:36;;;;;;;23.65;12.90;;;5.90;99.90;;;;;;6266985;22;20061;-58
2022/03/15 07:15:04;;;;;;;23.25;13.52;;;6.00;99.90;;;;;;6267353;22;20018;-58
2022/03/15 07:17:30;;;;;;;22.55;13.45;;;6.10;99.90;;;;;;6239562;22;20034;-58
2022/03/15 07:19:57;;;;;;;23.08;13.93;;;6.10;99.90;;;;;;6239605;22;20024;-60
2022/03/15 07:22:24;;;;;;;27.48;14.77;;;6.20;99.90;;;;;;6266781;22;20019;-58
2022/03/15 07:24:51;;;;;;;27.38;14.40;;;6.30;99.90;;;;;;6267358;22;20023;-58
2022/03/15 07:27:17;;;;;;;29.85;16.80;;;6.40;99.90;;;;;;6266596;22;20023;-59
2022/03/15 07:29:43;;;;;;;21.83;13.15;;;6.50;99.90;;;;;;6266464;22;20418;-58
2022/03/15 07:32:09;;;;;;;23.27;13.82;;;6.60;99.90;;;;;;6264387;22;20023;-58
2022/03/15 07:34:34;;;;;;;21.65;13.65;;;6.60;99.90;;;;;;6266466;22;20484;-58
2022/03/15 07:37:00;;;;;;;22.25;14.20;;;6.70;99.90;;;;;;6267643;22;20022;-58
2022/03/15 07:39:26;;;;;;;28.42;14.93;;;6.80;99.90;;;;;;6266089;22;20023;-59
2022/03/15 07:41:52;;;;;;;23.98;15.05;;;7.20;99.90;;;;;;6267611;22;20382;-58
2022/03/15 07:44:17;;;;;;;25.48;15.73;;;7.00;99.90;;;;;;6214570;22;20026;-59
2022/03/15 07:46:48;;;;;;;28.50;14.77;;;7.50;99.90;;;;;;6262142;22;20019;-59
2022/03/15 07:49:21;;;;;;;35.58;16.92;;;7.20;99.90;;;;;;6265747;22;20020;-59
2022/03/15 07:51:48;;;;;;;24.67;14.87;;;7.20;99.90;;;;;;6265906;22;20339;-59
2022/03/15 07:54:16;;;;;;;27.92;15.93;;;7.30;99.90;;;;;;6265984;22;20016;-59
2022/03/15 07:56:42;;;;;;;28.20;16.10;;;7.30;99.90;;;;;;6265034;22;20111;-58
2022/03/15 07:59:08;;;;;;;29.73;16.45;;;7.40;99.90;;;;;;6237945;22;20122;-59
2022/03/15 08:01:34;;;;;;;29.42;17.67;;;7.40;99.90;;;;;;6238014;22;20526;-58
2022/03/15 08:04:01;;;;;;;28.73;16.25;;;7.50;99.90;;;;;;6266936;22;20030;-59
2022/03/15 08:06:27;;;;;;;37.22;18.27;;;7.60;99.90;;;;;;6266846;22;20027;-59
2022/03/15 08:08:57;;;;;;;33.20;17.58;;;7.70;99.90;;;;;;6267076;22;20371;-59
2022/03/15 08:11:24;;;;;;;26.15;16.92;;;7.70;99.90;;;;;;6268693;22;20019;-58
2022/03/15 08:13:51;;;;;;;32.60;16.75;;;7.70;99.90;;;;;;6266372;22;20492;-59
2022/03/15 08:16:17;;;;;;;27.48;17.35;;;7.80;99.90;;;;;;6269012;22;20022;-59
2022/03/15 08:18:43;;;;;;;29.65;16.95;;;7.80;99.90;;;;;;6267450;22;20424;-59
2022/03/15 08:21:09;;;;;;;26.38;15.80;;;7.80;99.90;;;;;;6267823;22;20011;-59
2022/03/15 08:23:35;;;;;;;29.02;16.80;;;7.90;99.90;;;;;;6262864;22;20339;-58
2022/03/15 08:26:01;;;;;;;31.63;16.50;;;7.90;99.90;;;;;;6263499;22;20022;-59
2022/03/15 08:28:26;;;;;;;34.65;18.10;;;8.20;99.90;;;;;;6265653;22;20019;-59
2022/03/15 08:30:53;;;;;;;27.30;16.33;;;8.00;99.90;;;;;;6267866;22;20020;-59
2022/03/15 08:33:20;;;;;;;27.98;18.45;;;8.10;99.90;;;;;;6267624;22;20338;-58
2022/03/15 08:35:46;;;;;;;36.22;17.60;;;8.20;99.90;;;;;;6240434;22;20032;-59
2022/03/15 08:38:12;;;;;;;31.73;18.23;;;8.20;99.90;;;;;;6239687;22;20065;-59
2022/03/15 08:40:38;;;;;;;28.98;17.70;;;8.30;99.90;;;;;;6267108;22;20020;-61
2022/03/15 08:43:04;;;;;;;28.65;16.23;;;8.30;99.90;;;;;;6266434;22;20031;-59
2022/03/15 08:45:30;;;;;;;35.92;18.58;;;8.50;99.90;;;;;;6267748;22;20450;-59
2022/03/15 08:47:57;;;;;;;29.10;18.58;;;8.50;99.90;;;;;;6265368;22;20023;-58
2022/03/15 08:50:22;;;;;;;25.25;16.58;;;8.40;99.90;;;;;;6264730;22;20082;-58
2022/03/15 08:52:48;;;;;;;26.08;16.73;;;8.50;99.90;;;;;;6264186;22;20426;-58
2022/03/15 08:55:14;;;;;;;28.98;16.65;;;8.60;99.90;;;;;;6267555;22;20015;-59
2022/03/15 08:57:40;;;;;;;33.97;16.33;;;8.50;99.90;;;;;;6266440;22;20034;-59
2022/03/15 09:00:08;;;;;;;24.08;15.07;;;8.50;99.90;;;;;;6267050;22;20020;-58
2022/03/15 09:02:34;;;;;;;27.83;16.65;;;8.50;99.90;;;;;;6264704;22;20015;-58
2022/03/15 09:05:00;;;;;;;27.80;16.92;;;8.60;99.90;;;;;;6264156;22;20492;-59
2022/03/15 09:07:27;;;;;;;26.55;15.90;;;8.70;99.90;;;;;;6266920;22;20012;-59
2022/03/15 09:09:53;;;;;;;29.50;16.73;;;8.70;99.90;;;;;;6238460;22;20358;-58
2022/03/15 09:12:20;;;;;;;25.85;16.30;;;8.80;99.90;;;;;;6267016;22;20226;-61
2022/03/15 09:14:46;;;;;;;28.15;17.27;;;8.90;99.90;;;;;;6266260;22;20346;-58
2022/03/15 09:17:12;;;;;;;27.55;16.50;;;8.80;99.90;;;;;;6267003;22;20023;-59
2022/03/15 09:19:40;;;;;;;24.60;16.60;;;9.00;99.90;;;;;;6266320;22;20058;-59
2022/03/15 09:22:07;;;;;;;30.80;18.38;;;8.90;99.90;;;;;;6267141;22;20015;-59
2022/03/15 09:24:34;;;;;;;24.20;16.77;;;8.90;99.90;;;;;;6263134;22;20019;-58
2022/03/15 09:26:59;;;;;;;27.20;16.50;;;9.10;99.90;;;;;;6267287;22;20066;-59
2022/03/15 09:29:25;;;;;;;27.95;16.15;;;9.10;99.90;;;;;;6266518;22;20023;-58
2022/03/15 09:31:51;;;;;;;21.85;15.23;;;9.10;99.90;;;;;;6264463;22;20387;-58
2022/03/15 09:34:18;;;;;;;35.42;17.88;;;9.30;99.90;;;;;;6264118;22;20061;-59
2022/03/15 09:36:44;;;;;;;30.40;17.27;;;9.40;99.90;;;;;;6266656;22;20031;-58
2022/03/15 09:39:10;;;;;;;25.35;16.08;;;9.40;99.90;;;;;;6266333;22;20104;-58
2022/03/15 09:41:40;;;;;;;27.60;16.08;;;9.60;99.90;;;;;;6265736;22;20445;-59
2022/03/15 09:44:08;;;;;;;26.83;16.65;;;10.00;99.90;;;;;;6266661;22;20020;-59
2022/03/15 09:46:47;;;;;;;26.75;16.65;;;9.90;99.90;;;;;;6239287;22;20066;-58
2022/03/15 09:49:16;;;;;;;25.77;16.63;;;10.10;99.90;;;;;;6266752;22;20368;-62
2022/03/15 09:51:42;;;;;;;27.33;17.35;;;10.20;99.90;;;;;;6265620;22;20015;-70
2022/03/15 09:54:09;;;;;;;41.00;19.10;;;10.40;99.90;;;;;;6267028;22;20026;-62
2022/03/15 09:56:39;;;;;;;24.02;16.23;;;10.80;99.90;;;;;;6266226;22;20019;-67
2022/03/15 09:59:14;;;;;;;23.38;15.63;;;10.70;99.90;;;;;;6239186;22;20146;-65
2022/03/15 10:01:42;;;;;;;26.67;16.95;;;10.80;99.90;;;;;;6266648;22;20069;-60
2022/03/15 10:04:08;;;;;;;32.58;19.08;;;11.20;99.90;;;;;;6266033;22;20450;-72
2022/03/15 10:06:38;;;;;;;24.80;18.25;;;11.20;99.90;;;;;;6266196;22;20023;-59
2022/03/15 10:09:05;;;;;;;28.05;15.40;;;11.50;99.90;;;;;;6266687;22;20431;-62
2022/03/15 10:11:31;;;;;;;24.70;15.50;;;12.00;99.90;;;;;;6266336;22;20019;-68
2022/03/15 10:13:58;;;;;;;28.17;15.98;;;12.30;99.90;;;;;;6267024;22;20098;-71
2022/03/15 10:16:35;;;;;;;25.67;14.15;;;12.10;99.90;;;;;;6266164;22;20150;-59
2022/03/15 10:19:02;;;;;;;27.40;18.38;;;12.30;99.90;;;;;;6266832;22;20015;-71
2022/03/15 10:22:02;;;;;;;24.05;15.35;;;12.50;99.90;;;;;;6266628;22;20066;-72
2022/03/15 10:24:29;;;;;;;23.42;15.98;;;12.60;99.90;;;;;;6200250;22;20023;-59
2022/03/15 10:27:01;;;;;;;22.02;14.65;;;12.90;99.90;;;;;;6266007;22;20043;-56
2022/03/15 10:29:28;;;;;;;24.13;15.80;;;13.20;99.90;;;;;;6265994;22;20306;-56
2022/03/15 10:31:54;;;;;;;22.60;15.25;;;13.40;99.90;;;;;;6266058;22;20023;-56
2022/03/15 10:34:21;;;;;;;23.00;14.85;;;13.60;99.90;;;;;;6266974;22;20035;-56
2022/03/15 10:36:51;;;;;;;23.25;14.50;;;13.50;99.90;;;;;;6262979;22;20020;-59
2022/03/15 10:39:19;;;;;;;21.92;15.50;;;13.50;99.90;;;;;;6232934;22;20050;-57
2022/03/15 10:41:54;;;;;;;22.40;14.07;;;13.50;99.90;;;;;;6262197;22;20023;-57
2022/03/15 10:44:28;;;;;;;21.40;14.55;;;13.60;99.90;;;;;;6266892;22;20235;-62
2022/03/15 10:47:15;;;;;;;22.83;14.63;;;13.70;99.90;;;;;;6265035;22;20024;-57
2022/03/15 10:49:55;;;;;;;21.08;13.93;;;13.80;99.90;;;;;;6266189;22;20018;-67
2022/03/15 10:52:40;;;;;;;24.25;15.63;;;13.70;99.90;;;;;;6266375;22;20038;-57
2022/03/15 10:55:28;;;;;;;23.23;13.95;;;13.70;99.90;;;;;;6265349;22;20077;-66
2022/03/15 10:57:59;;;;;;;23.63;14.15;;;13.60;99.90;;;;;;6238138;22;20027;-68
2022/03/15 11:00:27;;;;;;;21.42;12.05;;;13.70;99.90;;;;;;6266351;22;20024;-68
2022/03/15 11:02:54;;;;;;;21.48;12.27;;;13.70;99.90;;;;;;6265113;22;20077;-61
2022/03/15 11:05:29;;;;;;;22.95;13.68;;;13.50;99.90;;;;;;6266296;22;20023;-56
2022/03/15 11:07:56;;;;;;;21.42;12.57;;;13.50;99.90;;;;;;6237283;22;20350;-59
2022/03/15 11:10:23;;;;;;;19.25;13.75;;;13.30;99.90;;;;;;6264972;22;20447;-57
2022/03/15 11:13:02;;;;;;;26.08;13.52;;;13.20;99.90;;;;;;6266499;22;20401;-56
2022/03/15 11:15:34;;;;;;;20.67;12.52;;;13.30;99.90;;;;;;6264504;22;20435;-59
2022/03/15 11:18:05;;;;;;;21.38;12.25;;;13.50;99.90;;;;;;6239166;22;20030;-56
2022/03/15 11:20:36;;;;;;;21.88;11.57;;;13.40;99.90;;;;;;6265907;22;20020;-58
2022/03/15 11:23:05;;;;;;;17.25;12.65;;;13.50;99.90;;;;;;6266206;22;20118;-68
2022/03/15 11:25:35;;;;;;;23.10;12.73;;;13.60;99.90;;;;;;6265288;22;20084;-70
2022/03/15 11:28:02;;;;;;;16.88;11.48;;;13.70;99.90;;;;;;6265874;22;20035;-66
2022/03/15 11:30:28;;;;;;;18.50;12.88;;;13.70;99.90;;;;;;6266129;22;20018;-56
2022/03/15 11:32:55;;;;;;;21.13;11.90;;;13.80;99.90;;;;;;6266391;22;20027;-61
2022/03/15 11:35:23;;;;;;;25.73;13.27;;;13.50;99.90;;;;;;6265505;22;20018;-58
2022/03/15 11:37:51;;;;;;;20.42;13.07;;;13.30;99.90;;;;;;6267742;22;20341;-60
2022/03/15 11:40:18;;;;;;;24.27;13.90;;;13.30;99.90;;;;;;6268348;22;20083;-61
2022/03/15 11:42:52;;;;;;;23.00;14.00;;;13.00;99.90;;;;;;6268058;22;20437;-60
2022/03/15 11:45:29;;;;;;;22.35;14.82;;;13.10;99.90;;;;;;6268482;22;20462;-65
2022/03/15 11:48:05;;;;;;;23.58;14.68;;;12.90;99.90;;;;;;6268656;22;20024;-59
2022/03/15 11:50:55;;;;;;;24.88;15.30;;;12.90;99.90;;;;;;6268786;22;20066;-62
2022/03/15 11:53:42;;;;;;;26.30;17.42;;;12.80;99.90;;;;;;6209689;22;20016;-65
2022/03/15 11:56:32;;;;;;;25.95;15.57;;;12.70;99.90;;;;;;6268690;22;20023;-64
2022/03/15 11:58:58;;;;;;;27.88;15.45;;;12.70;99.90;;;;;;6267382;22;20023;-60
2022/03/15 12:01:25;;;;;;;24.38;14.93;;;12.70;99.90;;;;;;6267647;22;20034;-57
2022/03/15 12:03:57;;;;;;;27.25;15.23;;;12.70;99.90;;;;;;6240636;22;20031;-58
2022/03/15 12:06:26;;;;;;;22.42;14.88;;;12.60;99.90;;;;;;6267864;22;20464;-64
2022/03/15 12:08:57;;;;;;;24.15;16.15;;;12.70;99.90;;;;;;6268723;22;20380;-60
2022/03/15 12:11:29;;;;;;;22.98;14.35;;;12.70;99.90;;;;;;6268985;22;20092;-58
2022/03/15 12:14:03;;;;;;;20.40;13.10;;;12.70;99.90;;;;;;6268282;22;20020;-57
2022/03/15 12:16:44;;;;;;;22.88;12.80;;;12.70;99.90;;;;;;6267257;22;20110;-56
2022/03/15 12:19:14;;;;;;;19.30;14.43;;;13.10;99.90;;;;;;6240047;22;20031;-56
2022/03/15 12:22:07;;;;;;;21.42;13.45;;;13.30;99.90;;;;;;6266631;22;20462;-57
2022/03/15 12:24:46;;;;;;;22.50;13.68;;;13.50;99.90;;;;;;6260651;22;20023;-57
2022/03/15 12:27:20;;;;;;;21.10;12.98;;;13.40;99.90;;;;;;6268264;22;20176;-57
2022/03/15 12:29:53;;;;;;;20.77;13.57;;;13.50;99.90;;;;;;6267516;22;20015;-57
2022/03/15 12:32:20;;;;;;;26.75;12.90;;;14.00;99.90;;;;;;6267758;22;20019;-63
2022/03/15 12:34:51;;;;;;;20.67;14.35;;;14.10;99.90;;;;;;6267084;22;20288;-57
2022/03/15 12:37:38;;;;;;;18.52;12.80;;;14.40;99.90;;;;;;6268114;22;20568;-63
2022/03/15 12:40:07;;;;;;;18.23;13.80;;;14.50;99.90;;;;;;6264476;22;20648;-59
2022/03/15 12:42:33;;;;;;;18.27;12.45;;;14.50;99.90;;;;;;6267495;22;20023;-62
2022/03/15 12:45:10;;;;;;;19.88;13.60;;;14.60;99.90;;;;;;6266561;22;20026;-68